Meishan, China
Current Conditions -  °F | °C
As of 2:00 PM on Thursday 23 Oct 2014 (Local Time) from ZUUU Reporting Station
Few Clouds Few Clouds  
Wind Chill: 77°   Ceiling: Unl
Heat Index: 79°   Visibility: 5mi
Dew Point: 55°   Wind: 2mph
Humidity: 47%   Direction: NA
Pressure: 30.06"   Gusts: NA
Location:  30.05°N, 103.85°E
Report Text: ZUUU 230600Z VRB01MPS 8000 FEW030 25/13 Q1018 NOSIG
Loading
Personal Weather Stations






























Interactive Weather Map
Tropical Storm Tracking
New forecast layout! Learn more

10-Day Weather Forecast

Advertisements
Track Severe Weather on mobile